Lambert St Louis International Airport
KSTL : now visible

Airfield :











YOU CAN JOIN US ON...

 
LOGIN :

Register | Disclaimer

   EN    FR    IT 

 









Legend :    VFR   Marginal VFR   IFR   Intensive IFR   Very Intensive IFR
Visi :
Ceiling :
>= 8 km
>= 3000ft
5 to 8 km
1000 to 3000 ft
1500m to 5 km
500 to 1000 ft
800 to 1500m
200 to 500 ft
< 800m
< 200 ft
Symbols :   Thunderstorms  Fog  Heavy snow  Heavy precipitations  Wind > 20 kt






- Airport Elevation : 618 ft
- IATA code : STL


KSTL - Lambert St Louis International

CURRENT METAR :
  • 181058Z 20007KT 9SM -RA SCT010 BKN016 OVC022 08/06 A2981 RMK AO2 P0000 T00780061 $

EXPIRED METARs :
  • 181051Z 21005KT 10SM -RA BKN010 BKN013 OVC028 07/06 A2982 RMK AO2 SLP106 P0006 T00720061 $
  • 181043Z 23005KT 10SM -RA BKN010 BKN015 OVC028 07/06 A2983 RMK AO2 P0005 T00670056 $
  • 181021Z 27008KT 5SM -RA BR SCT010 SCT025 OVC031 07/06 A2982 RMK AO2 P0004 T00670056 $
  • 181002Z 22007KT 7SM -RA FEW016 BKN029 OVC075 06/04 A2981 RMK AO2 P0002 T00610044 $
  • 180951Z 18009KT 4SM RA BR FEW004 SCT046 OVC080 06/04 A2981 RMK AO2 DZE04RAB04 SLP102 P0003 T00560044 $
  • 180948Z 19009KT 4SM -RA BR FEW004 SCT046 OVC080 06/04 A2981 RMK AO2 DZE04RAB04 P0002 $
  • 180901Z 17008KT 10SM -DZ FEW004 SCT021 OVC040 04/03 A2985 RMK AO2 P0000 T00440028 $
  • 180851Z 17008KT 10SM -DZ FEW004 BKN021 OVC060 04/03 A2985 RMK AO2 SLP117 RAE45DZB45 P0002 60063 T00390028 56023 $
  • 180828Z 18008KT 8SM -RA FEW005 BKN025 OVC035 03/02 A2987 RMK AO2 P0001 T00330022 $
  • 180816Z 16008KT 9SM -RA FEW005 SCT018 OVC035 03/02 A2987 RMK AO2 P0001 T00330017 $

TAF KSTL
Valid from the 18 at 06:00 until the 19 at 12:00 UTC


180539Z 1806/1912 17012G20KT 3SM -RA BR OVC006 WS020/20045KT
FM181200 22015G23KT 5SM BR OVC007
FM181400 27017G26KT P6SM OVC014
FM182200 29020G29KT P6SM OVC020
FM190200 29016G25KT P6SM SCT027



MET'MAP, your aeronautical weather chart ! - Copyright ORBIFLY December 2007 - Disclaimer

ORBIFLY MET'MAP TEAM :

Programming & Development : Alexandra Zaïnal
Concept & original design : Baudouin d'Aumeries
Assistance for programming : Marc-Olivier Méhu
Technical & hardware support : Manuel Goepfert

Contact : metmap@orbifly.com




SOURCES & CREDITS :

   NOAA       Earth
Advisory